ADDS METAR Data INFO
IDs: Format: Raw Decoded Include TAF

Data at: 1020 UTC 12 Dec 2017

KDXX 121015Z AUTO 26004KT 10SM CLR M12/M14 A3030 RMK AO2
KDXX 120955Z AUTO 29004KT 10SM CLR M11/M13 A3031 RMK AO2
KDXX 120935Z AUTO 27004KT 10SM CLR M12/M13 A3031 RMK AO2
KDXX 120915Z AUTO 27003KT 10SM CLR M12/M13 A3031 RMK AO2
KDXX 120855Z AUTO 26004KT 10SM CLR M12/M13 A3033 RMK AO2
KDXX 120835Z AUTO 28005KT 10SM CLR M12/M14 A3033 RMK AO2
KDXX 120815Z AUTO 30004KT 10SM CLR M12/M14 A3033 RMK AO2
KDXX 120755Z AUTO 30004KT 10SM CLR M11/M13 A3033 RMK AO2
KDXX 120735Z AUTO 30004KT 10SM CLR M11/M13 A3033 RMK AO2
KDXX 120715Z AUTO 31004KT 10SM CLR M11/M12 A3034 RMK AO2
KDXX 120655Z AUTO 31005KT 10SM CLR M10/M12 A3034 RMK AO2
KDXX 120635Z AUTO 30005KT 10SM CLR M11/M12 A3034 RMK AO2
KDXX 120615Z AUTO 29005KT 10SM CLR M10/M12 A3034 RMK AO2
KDXX 120555Z AUTO 31004KT 10SM CLR M10/M12 A3034 RMK AO2
KDXX 120535Z AUTO 30005KT 10SM CLR M10/M12 A3035 RMK AO2
KDXX 120515Z AUTO 31004KT 10SM CLR M10/M12 A3035 RMK AO2
KDXX 120455Z AUTO 33008KT 10SM CLR M09/M12 A3035 RMK AO2
KDXX 120435Z AUTO 33009KT 10SM CLR M09/M11 A3036 RMK AO2
KDXX 120415Z AUTO 33009KT 10SM CLR M09/M12 A3035 RMK AO2
KDXX 120355Z AUTO 32006KT 10SM CLR M09/M11 A3035 RMK AO2
KDXX 120335Z AUTO 34009KT 10SM CLR M09/M12 A3035 RMK AO2
KDXX 120315Z AUTO 34010KT 10SM CLR M08/M11 A3035 RMK AO2
KDXX 120255Z AUTO 34010KT 10SM CLR M08/M11 A3034 RMK AO2
KDXX 120235Z AUTO 35010KT 10SM CLR M08/M11 A3033 RMK AO2
KDXX 120215Z AUTO 35013G17KT 10SM CLR M08/M11 A3033 RMK AO2
KDXX 120155Z AUTO 35013G18KT 10SM CLR M07/M11 A3033 RMK AO2
KDXX 120135Z AUTO 35018G22KT 10SM CLR M07/M11 A3033 RMK AO2
KDXX 120115Z AUTO 34018G26KT 10SM CLR M06/M11 A3031 RMK AO2
KDXX 120055Z AUTO 34016G26KT 10SM CLR M06/M10 A3030 RMK AO2
KDXX 120035Z AUTO 34016G23KT 10SM CLR M06/M09 A3028 RMK AO2
KDXX 120015Z AUTO 34016G23KT 10SM CLR M06/M09 A3027 RMK AO2
KDXX 112355Z AUTO 34016G21KT 10SM CLR M05/M09 A3027 RMK AO2
KDXX 112335Z AUTO 33019G24KT 10SM CLR M05/M09 A3025 RMK AO2
KDXX 112315Z AUTO 34019G26KT 10SM CLR M05/M09 A3024 RMK AO2
KDXX 112255Z AUTO 34021G31KT 10SM CLR M04/M09 A3023 RMK AO2
KDXX 112235Z AUTO 34021G30KT 10SM SCT023 M04/M09 A3021 RMK AO2
KDXX 112215Z AUTO 33025G30KT 10SM SCT023 M03/M08 A3021 RMK AO2
KDXX 112155Z AUTO 34024G29KT 10SM SCT023 M03/M08 A3018 RMK AO2
KDXX 112135Z AUTO 34021G31KT 10SM BKN021 M03/M08 A3017 RMK AO2
KDXX 112115Z AUTO 34019G30KT 10SM OVC021 M03/M07 A3016 RMK AO2
KDXX 112055Z AUTO 34028G32KT 10SM OVC021 M02/M07 A3015 RMK AO2
KDXX 112035Z AUTO 35024G34KT 10SM OVC019 M02/M06 A3013 RMK AO2
KDXX 112015Z AUTO 34025G28KT 10SM OVC017 M02/M06 A3011 RMK AO2
KDXX 111955Z AUTO 34023G30KT 10SM OVC017 M01/M05 A3010 RMK AO2
KDXX 111935Z AUTO 35025G34KT 10SM OVC017 M01/M05 A3009 RMK AO2
KDXX 111855Z AUTO 33028G33KT 10SM OVC015 00/M03 A3006 RMK AO2
KDXX 111835Z AUTO 34029G32KT 10SM OVC015 00/M03 A3005 RMK AO2
KDXX 111815Z AUTO 33026G30KT 10SM OVC013 00/M03 A3003 RMK AO2
KDXX 111755Z AUTO 33029G36KT 10SM OVC013 01/M02 A3002 RMK AO2
KDXX 111735Z AUTO 34024G38KT 10SM OVC013 01/M02 A3000 RMK AO2
KDXX 111715Z AUTO 33028G33KT 10SM OVC013 01/M02 A2998 RMK AO2
KDXX 111655Z AUTO 34029G39KT 10SM OVC013 02/M01 A2996 RMK AO2
KDXX 111635Z AUTO 34027G35KT 10SM OVC015 02/M01 A2994 RMK AO2
KDXX 111615Z AUTO 33023G30KT 10SM OVC015 03/01 A2992 RMK AO2
KDXX 111555Z AUTO 34025G32KT 10SM OVC017 04/02 A2990 RMK AO2
KDXX 111535Z AUTO 33019G30KT 10SM SCT008 BKN015 OVC020 03/03 A2988 RMK AO2
KDXX 111515Z AUTO 33021G28KT 5SM UP BKN010 OVC015 04/03 A2986 RMK AO2
KDXX 111455Z AUTO 33021G28KT 2 1/2SM BR OVC016 04/02 A2985 RMK AO2
KDXX 111435Z AUTO 33021G29KT 10SM OVC016 04/02 A2983 RMK AO2
KDXX 111415Z AUTO 33021G24KT 10SM OVC018 05/02 A2981 RMK AO2
KDXX 111355Z AUTO 33017G22KT 10SM OVC020 05/02 A2980 RMK AO2
KDXX 111335Z AUTO 32016G23KT 10SM BKN020 OVC025 05/02 A2978 RMK AO2
KDXX 111315Z AUTO 31010KT 10SM BKN020 OVC025 04/02 A2978 RMK AO2
KDXX 111255Z AUTO 30013G16KT 10SM OVC022 04/02 A2977 RMK AO2
KDXX 111235Z AUTO 30009KT 10SM OVC024 04/02 A2977 RMK AO2
KDXX 111215Z AUTO 32013G21KT 10SM OVC026 04/02 A2976 RMK AO2
KDXX 111155Z AUTO 32020G28KT 10SM -RA OVC024 05/02 A2976 RMK AO2
KDXX 111135Z AUTO 31018G24KT 10SM UP SCT027 SCT044 06/M01 A2975 RMK AO2
KDXX 111115Z AUTO 30012G19KT 10SM CLR 05/M02 A2975 RMK AO2
KDXX 111055Z AUTO 29013KT 10SM SCT110 05/M02 A2975 RMK AO2
KDXX 111035Z AUTO 28008KT 10SM SCT110 04/M02 A2975 RMK AO2
KDXX 111015Z AUTO 30005KT 10SM SCT090 02/M01 A2975 RMK AO2
KDXX 110955Z AUTO 23004KT 10SM SCT090 02/M02 A2973 RMK AO2
KDXX 110935Z AUTO 25005KT 10SM CLR 02/M02 A2975 RMK AO2
KDXX 110915Z AUTO 00000KT 10SM SCT080 02/M02 A2977 RMK AO2
KDXX 110855Z AUTO 00000KT 10SM CLR 03/M02 A2977 RMK AO2
KDXX 110835Z AUTO 00000KT 10SM CLR 03/M02 A2978 RMK AO2
KDXX 110815Z AUTO 25004KT 10SM CLR 04/M01 A2979 RMK AO2
KDXX 110755Z AUTO 26005KT 10SM CLR 04/M01 A2981 RMK AO2
KDXX 110735Z AUTO 25007KT 10SM SCT120 04/M01 A2982 RMK AO2
KDXX 110715Z AUTO 24006KT 10SM CLR 03/M01 A2983 RMK AO2
KDXX 110655Z AUTO 23004KT 10SM CLR 02/M01 A2984 RMK AO2
KDXX 110635Z AUTO 22004KT 10SM BKN110 02/M01 A2985 RMK AO2
KDXX 110615Z AUTO 22004KT 10SM OVC110 02/M01 A2986 RMK AO2
KDXX 110555Z AUTO 21004KT 10SM OVC110 02/M01 A2986 RMK AO2
KDXX 110535Z AUTO 20006KT 10SM SCT060 BKN110 02/M01 A2987 RMK AO2
KDXX 110515Z AUTO 19004KT 10SM UP BKN070 02/M01 A2988 RMK AO2
KDXX 110455Z AUTO 22004KT 10SM BKN070 OVC090 02/M01 A2990 RMK AO2
KDXX 110435Z AUTO 20005KT 10SM BKN090 OVC110 01/M02 A2991 RMK AO2
KDXX 110415Z AUTO 18005KT 10SM BKN100 01/M02 A2992 RMK AO2
KDXX 110355Z AUTO 17005KT 10SM BKN100 01/M02 A2993 RMK AO2
KDXX 110335Z AUTO 17004KT 10SM SCT110 02/M02 A2995 RMK AO2
KDXX 110315Z AUTO 20003KT 10SM SCT080 02/M02 A2997 RMK AO2
KDXX 110255Z AUTO 18006KT 10SM SCT110 02/M02 A2996 RMK AO2
KDXX 110235Z AUTO 17006KT 10SM SCT120 01/M02 A2996 RMK AO2
KDXX 110215Z AUTO 17005KT 10SM BKN120 01/M02 A2996 RMK AO2
KDXX 110155Z AUTO 17005KT 10SM OVC120 02/M02 A2997 RMK AO2
KDXX 110135Z AUTO 17004KT 10SM OVC120 01/M02 A2999 RMK AO2
KDXX 110115Z AUTO 16004KT 10SM SCT120 01/M02 A3000 RMK AO2
KDXX 110056Z AUTO 17004KT 10SM CLR 01/M02 A3001 RMK AO2
KDXX 110035Z AUTO 00000KT 10SM SCT090 01/M02 A3003 RMK AO2
KDXX 110016Z AUTO 00000KT 10SM OVC090 02/M02 A3003 RMK AO2
KDXX 102355Z AUTO 00000KT 10SM BKN090 02/M02 A3004 RMK AO2
KDXX 102335Z AUTO 00000KT 10SM SCT090 02/M03 A3005 RMK AO2
KDXX 102316Z AUTO 00000KT 10SM OVC090 03/M03 A3005 RMK AO2
KDXX 102255Z AUTO 00000KT 10SM OVC090 03/M03 A3004 RMK AO2
KDXX 102235Z AUTO 00000KT 10SM OVC100 03/M03 A3004 RMK AO2